Time;durP1;ratioP1;P1;durP2;ratioP2;P2;SDS_P1;SDS_P2;PMS_P1;PMS_P2;Temp;Humidity;BMP_temperature;BMP_pressure;BME280_temperature;BME280_humidity;BME280_pressure;Samples;Min_cycle;Max_cycle;Signal;HPM_P1;HPM_P2
2023/06/29 00:00:05;;;;;;;0.50;0.30;;;;;;;20.04;100.00;95135.94;5072401;28;20594;-58
2023/06/29 00:02:34;;;;;;;0.80;0.60;;;;;;;19.73;100.00;95146.38;5072572;28;20846;-57
2023/06/29 00:05:02;;;;;;;1.00;0.60;;;;;;;19.60;100.00;95142.88;5073200;28;20445;-58
2023/06/29 00:07:33;;;;;;;0.80;0.60;;;;;;;19.70;100.00;95152.41;5072712;28;20945;-58
2023/06/29 00:10:01;;;;;;;0.77;0.77;;;;;;;19.52;100.00;95162.53;5072989;28;20442;-58
2023/06/29 00:12:31;;;;;;;0.70;0.57;;;;;;;19.45;100.00;95166.88;5073022;28;20438;-59
2023/06/29 00:15:00;;;;;;;0.63;0.60;;;;;;;19.36;100.00;95158.03;5072646;28;20501;-59
2023/06/29 00:17:28;;;;;;;0.60;0.40;;;;;;;19.51;100.00;95160.94;5073033;28;20430;-59
2023/06/29 00:19:56;;;;;;;0.50;0.50;;;;;;;18.93;100.00;95089.31;5072621;28;20437;-59
2023/06/29 00:22:25;;;;;;;0.80;0.47;;;;;;;19.57;100.00;95169.63;5072775;28;20930;-59
2023/06/29 00:24:57;;;;;;;2.33;1.40;;;;;;;19.37;100.00;95178.47;5072633;28;20445;-59
2023/06/29 00:27:25;;;;;;;0.80;0.63;;;;;;;19.32;100.00;95165.19;5072206;28;20441;-59
2023/06/29 00:29:55;;;;;;;0.73;0.73;;;;;;;19.34;100.00;95168.34;5072537;28;20957;-59
2023/06/29 00:32:23;;;;;;;0.63;0.63;;;;;;;19.34;100.00;95165.66;5072138;28;20448;-58
2023/06/29 00:34:51;;;;;;;0.80;0.80;;;;;;;19.37;100.00;95165.03;5072646;28;20440;-59
2023/06/29 00:37:20;;;;;;;1.37;1.30;;;;;;;19.43;100.00;95158.34;5072049;28;20877;-59
2023/06/29 00:39:48;;;;;;;1.30;0.70;;;;;;;19.47;100.00;95161.94;5071916;28;20905;-59
2023/06/29 00:42:16;;;;;;;0.90;0.50;;;;;;;19.50;100.00;95166.66;5072069;28;20801;-59
2023/06/29 00:44:46;;;;;;;0.60;0.50;;;;;;;19.13;100.00;95154.88;5071962;28;20437;-58
2023/06/29 00:47:15;;;;;;;1.00;0.90;;;;;;;19.12;100.00;95163.28;5072263;28;20433;-59
2023/06/29 00:49:44;;;;;;;1.90;0.70;;;;;;;19.13;100.00;95172.91;5072145;28;20966;-59
2023/06/29 00:52:12;;;;;;;1.67;0.40;;;;;;;19.17;100.00;95166.56;5072138;28;20495;-59
2023/06/29 00:54:41;;;;;;;0.90;0.77;;;;;;;19.14;100.00;95171.78;5070964;28;20478;-58
2023/06/29 00:57:10;;;;;;;0.70;0.50;;;;;;;19.36;100.00;95166.91;5072101;28;20994;-59
2023/06/29 00:59:38;;;;;;;0.70;0.60;;;;;;;19.53;100.00;95166.03;5071885;28;20503;-58
2023/06/29 01:02:08;;;;;;;0.77;0.77;;;;;;;19.43;100.00;95163.72;5072030;28;20437;-58
2023/06/29 01:04:39;;;;;;;1.70;0.57;;;;;;;19.66;100.00;95169.56;5071577;28;20441;-57
2023/06/29 01:07:15;;;;;;;1.33;0.37;;;;;;;19.76;100.00;95169.91;5072132;28;21036;-58
2023/06/29 01:09:46;;;;;;;0.70;0.70;;;;;;;19.39;100.00;95166.28;5071952;28;20433;-58
2023/06/29 01:12:16;;;;;;;0.63;0.50;;;;;;;19.23;100.00;95165.25;5071649;28;20960;-58
2023/06/29 01:14:46;;;;;;;0.60;0.60;;;;;;;19.32;100.00;95168.69;5044995;28;20476;-58
2023/06/29 01:17:16;;;;;;;0.77;0.40;;;;;;;19.08;100.00;95173.09;5071747;28;20442;-58
2023/06/29 01:19:49;;;;;;;0.70;0.60;;;;;;;19.00;100.00;95180.09;5071729;28;20476;-58
2023/06/29 01:22:22;;;;;;;0.50;0.30;;;;;;;19.23;100.00;95176.00;5071929;28;20519;-58
2023/06/29 01:24:53;;;;;;;0.93;0.93;;;;;;;19.74;100.00;95169.47;5071454;28;20811;-58
2023/06/29 01:27:21;;;;;;;0.50;0.30;;;;;;;19.54;100.00;95164.88;5067762;28;20469;-58
2023/06/29 01:29:53;;;;;;;0.53;0.47;;;;;;;19.78;100.00;95172.28;5062889;28;20514;-58
2023/06/29 01:32:21;;;;;;;3.13;0.90;;;;;;;19.84;100.00;95168.25;5070974;28;20457;-58
2023/06/29 01:34:50;;;;;;;1.63;1.00;;;;;;;19.66;100.00;95170.31;5071672;28;20430;-57
2023/06/29 01:37:21;;;;;;;1.10;0.73;;;;;;;19.43;100.00;95161.03;5071054;28;20434;-58
2023/06/29 01:39:55;;;;;;;0.87;0.87;;;;;;;19.68;100.00;95165.41;5071643;28;20481;-57
2023/06/29 01:42:25;;;;;;;0.50;0.40;;;;;;;19.64;100.00;95154.53;5046721;28;20506;-57
2023/06/29 01:44:54;;;;;;;0.60;0.60;;;;;;;19.34;100.00;95154.91;5070170;28;20446;-57
2023/06/29 01:47:23;;;;;;;1.60;0.47;;;;;;;19.51;100.00;95152.09;5071873;28;20441;-57
2023/06/29 01:49:52;;;;;;;0.70;0.63;;;;;;;19.70;100.00;95155.13;5070944;28;20448;-57
2023/06/29 01:52:20;;;;;;;0.50;0.47;;;;;;;19.53;100.00;95160.66;5071655;28;20474;-57
2023/06/29 01:54:50;;;;;;;0.97;0.53;;;;;;;19.23;100.00;95137.59;5071235;28;20438;-57
2023/06/29 01:57:20;;;;;;;0.50;0.50;;;;;;;19.26;100.00;95156.53;5075728;28;20440;-57
2023/06/29 01:59:48;;;;;;;1.20;0.80;;;;;;;19.18;100.00;95160.06;5075633;28;20477;-57
2023/06/29 02:02:16;;;;;;;0.67;0.67;;;;;;;19.02;100.00;95159.09;5075404;28;20434;-57
2023/06/29 02:04:45;;;;;;;0.50;0.40;;;;;;;19.08;100.00;95160.44;5075220;28;20433;-57
2023/06/29 02:07:14;;;;;;;0.57;0.53;;;;;;;18.99;100.00;95175.84;5075365;28;20491;-57
2023/06/29 02:09:43;;;;;;;0.73;0.73;;;;;;;19.50;100.00;95162.09;5075153;28;21051;-57
2023/06/29 02:12:13;;;;;;;1.57;0.70;;;;;;;19.65;100.00;95158.00;5075286;28;20495;-58
2023/06/29 02:14:42;;;;;;;0.83;0.83;;;;;;;19.47;100.00;95143.13;5049071;28;20508;-57
2023/06/29 02:17:11;;;;;;;0.67;0.57;;;;;;;19.56;100.00;95152.69;5060707;28;20442;-57
2023/06/29 02:19:39;;;;;;;2.50;0.40;;;;;;;19.46;100.00;95168.44;5063215;28;20484;-60
2023/06/29 02:22:07;;;;;;;1.03;1.03;;;;;;;19.31;100.00;95164.41;5075072;28;20487;-57
2023/06/29 02:24:36;;;;;;;0.73;0.73;;;;;;;19.28;100.00;95159.69;5075276;28;20479;-58
2023/06/29 02:27:04;;;;;;;0.77;0.67;;;;;;;19.21;100.00;95155.94;5074189;28;21034;-56
2023/06/29 02:29:33;;;;;;;1.77;1.67;;;;;;;19.53;100.00;95155.25;5074934;28;20476;-57
2023/06/29 02:32:02;;;;;;;0.70;0.50;;;;;;;19.75;100.00;95149.53;5074789;28;20527;-57
2023/06/29 02:34:31;;;;;;;0.90;0.90;;;;;;;19.42;100.00;95154.88;5074968;28;20446;-58
2023/06/29 02:36:59;;;;;;;0.60;0.50;;;;;;;19.41;100.00;95152.50;5074225;28;20491;-58
2023/06/29 02:39:27;;;;;;;0.70;0.40;;;;;;;19.71;100.00;95137.84;5074417;28;20523;-58
2023/06/29 02:41:56;;;;;;;0.60;0.50;;;;;;;20.05;100.00;95134.81;5074136;28;20953;-57
2023/06/29 02:44:24;;;;;;;0.80;0.60;;;;;;;19.60;100.00;95153.63;5074852;28;20495;-57
2023/06/29 02:46:52;;;;;;;0.50;0.50;;;;;;;19.49;100.00;95147.06;5074175;28;20430;-57
2023/06/29 02:49:22;;;;;;;0.50;0.30;;;;;;;19.89;100.00;95144.63;5074717;28;20441;-57
2023/06/29 02:51:50;;;;;;;0.70;0.40;;;;;;;20.25;100.00;95142.06;5074214;28;20433;-57
2023/06/29 02:54:19;;;;;;;0.50;0.40;;;;;;;20.49;100.00;95149.38;5073978;28;20437;-57
2023/06/29 02:56:47;;;;;;;0.60;0.57;;;;;;;20.37;100.00;95148.56;5073863;28;20430;-57
2023/06/29 02:59:15;;;;;;;0.50;0.30;;;;;;;20.55;100.00;95145.34;5073465;28;20464;-57
2023/06/29 03:01:44;;;;;;;0.50;0.40;;;;;;;20.49;100.00;95143.22;5074388;28;21000;-56
2023/06/29 03:04:12;;;;;;;0.60;0.30;;;;;;;20.57;100.00;95139.63;5074714;28;20536;-57
2023/06/29 03:06:42;;;;;;;0.50;0.43;;;;;;;20.55;100.00;95148.03;5073911;28;20972;-57
2023/06/29 03:09:10;;;;;;;0.63;0.63;;;;;;;20.25;100.00;95155.53;5074060;28;20434;-57
2023/06/29 03:11:38;;;;;;;0.80;0.67;;;;;;;20.07;100.00;95159.47;5061834;28;20441;-57
2023/06/29 03:14:07;;;;;;;0.50;0.40;;;;;;;20.60;100.00;95158.59;5074256;28;20832;-57
2023/06/29 03:16:37;;;;;;;0.50;0.40;;;;;;;20.71;100.00;95159.72;5074021;28;20452;-57
2023/06/29 03:19:05;;;;;;;0.40;0.20;;;;;;;20.55;100.00;95168.78;5073483;28;20536;-57
2023/06/29 03:21:34;;;;;;;0.40;0.30;;;;;;;20.34;100.00;95166.19;5074449;28;20433;-57
2023/06/29 03:24:04;;;;;;;0.90;0.50;;;;;;;19.96;100.00;95169.09;5073407;28;20896;-56
2023/06/29 03:26:32;;;;;;;0.67;0.50;;;;;;;19.67;100.00;95177.28;5073925;28;20470;-57
2023/06/29 03:29:00;;;;;;;0.93;0.93;;;;;;;19.55;100.00;95167.25;5073042;28;20438;-57
2023/06/29 03:31:29;;;;;;;0.50;0.40;;;;;;;19.60;100.00;95166.28;5073622;28;20629;-57
2023/06/29 03:33:58;;;;;;;0.70;0.63;;;;;;;19.79;100.00;95176.53;5073317;28;20438;-57
2023/06/29 03:36:27;;;;;;;0.50;0.40;;;;;;;20.01;100.00;95179.63;5073919;28;20437;-57
2023/06/29 03:38:55;;;;;;;0.57;0.53;;;;;;;20.20;100.00;95185.31;5073399;28;20434;-57
2023/06/29 03:41:25;;;;;;;0.50;0.47;;;;;;;20.37;100.00;95180.88;5073610;28;20509;-58
2023/06/29 03:43:53;;;;;;;0.80;0.60;;;;;;;20.32;100.00;95186.47;5073296;28;20433;-58
2023/06/29 03:46:21;;;;;;;0.40;0.30;;;;;;;20.22;100.00;95188.44;5073671;28;20473;-58
2023/06/29 03:48:50;;;;;;;0.50;0.30;;;;;;;20.18;100.00;95202.91;5047171;28;20516;-58
2023/06/29 03:51:18;;;;;;;0.57;0.50;;;;;;;20.69;100.00;95213.16;5073160;28;20803;-55
2023/06/29 03:53:47;;;;;;;0.50;0.40;;;;;;;20.71;100.00;95223.56;5073239;28;20450;-55
2023/06/29 03:56:15;;;;;;;0.70;0.70;;;;;;;21.02;100.00;95234.59;5072969;28;20442;-55
2023/06/29 03:58:45;;;;;;;1.33;0.43;;;;;;;21.13;100.00;95232.25;5073234;28;20434;-55
2023/06/29 04:01:13;;;;;;;1.20;0.90;;;;;;;21.29;100.00;95231.25;5072821;28;20508;-55
2023/06/29 04:03:41;;;;;;;0.57;0.47;;;;;;;21.32;100.00;95227.09;5073124;28;20603;-55
2023/06/29 04:06:10;;;;;;;0.60;0.57;;;;;;;21.31;100.00;95229.00;5073025;28;20445;-55
2023/06/29 04:08:38;;;;;;;0.53;0.47;;;;;;;21.26;100.00;95223.84;5073334;28;20445;-55
2023/06/29 04:11:06;;;;;;;0.60;0.50;;;;;;;20.81;100.00;95232.00;5073437;28;20473;-55
2023/06/29 04:13:36;;;;;;;0.60;0.50;;;;;;;20.40;100.00;95231.38;5072979;28;20465;-55
2023/06/29 04:16:06;;;;;;;1.17;1.07;;;;;;;20.10;100.00;95228.78;5072277;28;20445;-55
2023/06/29 04:18:35;;;;;;;1.07;0.90;;;;;;;20.07;100.00;95228.66;5072527;28;20446;-55
2023/06/29 04:21:04;;;;;;;0.57;0.33;;;;;;;20.00;100.00;95221.13;5072698;28;20532;-55
2023/06/29 04:23:32;;;;;;;0.80;0.40;;;;;;;20.52;100.00;95220.59;5073074;28;20820;-55
2023/06/29 04:26:02;;;;;;;0.50;0.33;;;;;;;20.49;100.00;95215.91;5072578;28;20444;-55
2023/06/29 04:28:33;;;;;;;0.57;0.40;;;;;;;20.74;100.00;95212.94;5073198;28;20442;-55
2023/06/29 04:31:02;;;;;;;0.57;0.57;;;;;;;19.94;100.00;95208.19;5046896;28;20510;-55
2023/06/29 04:33:32;;;;;;;0.60;0.40;;;;;;;19.89;100.00;95211.88;5072367;28;20828;-55
2023/06/29 04:36:00;;;;;;;0.87;0.57;;;;;;;19.60;100.00;95209.28;5072741;28;20469;-55
2023/06/29 04:38:29;;;;;;;0.40;0.40;;;;;;;19.84;100.00;95222.84;5072405;28;20858;-56
2023/06/29 04:41:03;;;;;;;0.40;0.20;;;;;;;20.00;100.00;95226.50;5072521;28;20530;-56
2023/06/29 04:43:32;;;;;;;0.53;0.53;;;;;;;19.59;100.00;95216.56;5072313;28;20433;-56
2023/06/29 04:46:01;;;;;;;0.60;0.60;;;;;;;19.53;100.00;95243.97;5072436;28;20480;-56
2023/06/29 04:48:36;;;;;;;0.60;0.50;;;;;;;18.96;100.00;95244.44;5072594;28;20922;-56
2023/06/29 04:51:06;;;;;;;0.80;0.30;;;;;;;19.34;100.00;95267.78;5072794;28;20469;-56
2023/06/29 04:53:35;;;;;;;0.40;0.30;;;;;;;19.35;100.00;95245.97;5071345;28;20537;-56
2023/06/29 04:56:04;;;;;;;0.50;0.40;;;;;;;19.55;100.00;95234.47;5072269;28;21008;-56
2023/06/29 04:58:32;;;;;;;0.60;0.40;;;;;;;19.72;100.00;95259.66;5046322;28;20941;-56
2023/06/29 05:01:01;;;;;;;0.50;0.30;;;;;;;19.25;100.00;95269.72;5071827;28;20526;-55
2023/06/29 05:03:31;;;;;;;0.60;0.53;;;;;;;19.22;100.00;95267.69;5072358;28;20981;-56
2023/06/29 05:06:00;;;;;;;0.60;0.50;;;;;;;19.52;100.00;95266.59;5072052;28;20437;-56
2023/06/29 05:08:28;;;;;;;0.70;0.60;;;;;;;19.89;100.00;95268.38;5072171;28;20487;-55
2023/06/29 05:10:56;;;;;;;0.47;0.30;;;;;;;19.74;100.00;95260.88;5071765;28;20477;-56
2023/06/29 05:13:25;;;;;;;0.80;0.73;;;;;;;20.12;100.00;95266.91;5071959;28;20520;-56
2023/06/29 05:15:54;;;;;;;0.40;0.30;;;;;;;20.68;100.00;95264.63;5071961;28;20473;-56
2023/06/29 05:18:22;;;;;;;0.60;0.40;;;;;;;20.85;100.00;95273.31;5072149;28;20433;-56
2023/06/29 05:20:52;;;;;;;0.60;0.40;;;;;;;20.78;100.00;95278.47;5071558;28;20538;-55
2023/06/29 05:23:20;;;;;;;0.40;0.30;;;;;;;20.52;100.00;95274.47;5072013;28;20485;-55
2023/06/29 05:25:49;;;;;;;0.80;0.50;;;;;;;20.68;100.00;95272.72;5071357;28;20438;-55
2023/06/29 05:28:17;;;;;;;1.03;0.73;;;;;;;20.59;100.00;95270.09;5072246;28;20445;-55
2023/06/29 05:30:46;;;;;;;1.37;0.30;;;;;;;20.60;100.00;95265.50;5070866;28;20438;-55
2023/06/29 05:33:14;;;;;;;0.60;0.50;;;;;;;20.59;100.00;95253.94;5071628;28;20433;-55
2023/06/29 05:35:43;;;;;;;0.50;0.47;;;;;;;20.87;100.00;95270.31;5071897;28;20517;-55
2023/06/29 05:38:14;;;;;;;0.70;0.50;;;;;;;20.26;100.00;95278.19;5072017;28;20437;-55
2023/06/29 05:40:42;;;;;;;0.40;0.40;;;;;;;20.17;100.00;95264.00;5071538;28;20461;-54
2023/06/29 05:43:11;;;;;;;0.40;0.30;;;;;;;20.44;100.00;95268.03;5071880;28;20485;-56
2023/06/29 05:45:39;;;;;;;0.80;0.57;;;;;;;20.51;100.00;95275.59;5071747;28;20442;-54
2023/06/29 05:48:08;;;;;;;0.50;0.30;;;;;;;20.30;100.00;95282.91;5071963;28;20438;-55
2023/06/29 05:50:36;;;;;;;1.13;0.40;;;;;;;20.44;100.00;95289.59;5071864;28;20670;-55
2023/06/29 05:53:05;;;;;;;0.43;0.33;;;;;;;20.80;100.00;95278.13;5071565;28;20519;-54
2023/06/29 05:55:34;;;;;;;0.60;0.53;;;;;;;20.88;100.00;95280.72;5070491;28;20444;-53
2023/06/29 05:58:03;;;;;;;0.53;0.53;;;;;;;21.16;100.00;95286.28;5071335;28;20881;-53
2023/06/29 06:00:31;;;;;;;0.50;0.40;;;;;;;20.82;100.00;95284.00;5071201;28;20495;-53
2023/06/29 06:02:59;;;;;;;1.80;0.83;;;;;;;20.96;100.00;95276.34;5070903;28;20438;-53
2023/06/29 06:05:28;;;;;;;3.60;1.40;;;;;;;20.98;100.00;95276.81;5071786;28;20441;-53
2023/06/29 06:07:57;;;;;;;0.50;0.40;;;;;;;21.23;100.00;95266.84;5071301;28;20476;-54
2023/06/29 06:10:25;;;;;;;0.50;0.50;;;;;;;21.09;100.00;95283.38;5071508;28;20442;-54
2023/06/29 06:12:55;;;;;;;0.50;0.30;;;;;;;21.36;100.00;95303.47;5071457;28;20434;-54
2023/06/29 06:15:23;;;;;;;0.50;0.40;;;;;;;21.39;100.00;95308.97;5071097;28;20486;-53
2023/06/29 06:17:52;;;;;;;0.70;0.70;;;;;;;21.06;100.00;95305.59;5070927;28;21109;-54
2023/06/29 06:20:20;;;;;;;0.60;0.60;;;;;;;21.37;100.00;95308.53;5071406;28;20434;-54
2023/06/29 06:22:48;;;;;;;0.53;0.40;;;;;;;20.86;100.00;95309.13;5070866;28;20514;-54
2023/06/29 06:25:17;;;;;;;0.50;0.33;;;;;;;21.21;100.00;95306.84;5071684;28;20495;-54
2023/06/29 06:27:46;;;;;;;0.40;0.30;;;;;;;21.33;100.00;95310.31;5046173;28;20445;-54
2023/06/29 06:30:16;;;;;;;0.60;0.60;;;;;;;21.89;100.00;95310.53;5071088;28;20438;-54
2023/06/29 06:32:44;;;;;;;0.63;0.63;;;;;;;22.02;100.00;95301.28;5071286;28;20437;-53
2023/06/29 06:35:13;;;;;;;0.40;0.40;;;;;;;22.79;91.44;95286.47;5070981;28;20437;-52
2023/06/29 06:37:41;;;;;;;0.40;0.40;;;;;;;23.28;95.15;95305.81;5070942;28;20445;-52
2023/06/29 06:40:10;;;;;;;4.80;0.33;;;;;;;23.87;84.86;95278.63;5070972;28;20442;-53
2023/06/29 06:42:39;;;;;;;0.40;0.37;;;;;;;24.46;75.95;95241.16;5074043;28;20477;-52
2023/06/29 06:45:08;;;;;;;6.00;0.70;;;;;;;24.57;77.50;95298.25;5074478;28;20429;-51
2023/06/29 06:47:38;;;;;;;0.60;0.50;;;;;;;24.83;76.76;95292.97;5064814;28;20448;-51
2023/06/29 06:50:08;;;;;;;0.40;0.30;;;;;;;24.41;76.60;95268.53;5072403;28;20441;-51
2023/06/29 06:52:36;;;;;;;1.07;1.07;;;;;;;24.34;73.55;95305.53;5074790;28;20502;-51
2023/06/29 06:55:05;;;;;;;1.03;0.30;;;;;;;24.54;75.61;95307.88;5074532;28;20459;-51
2023/06/29 06:57:33;;;;;;;0.47;0.33;;;;;;;24.39;72.64;95316.09;5074694;28;20469;-50
2023/06/29 07:00:02;;;;;;;0.40;0.30;;;;;;;25.04;76.21;95301.50;5074357;28;20942;-50
2023/06/29 07:02:30;;;;;;;0.40;0.40;;;;;;;25.33;75.44;95300.03;5074641;28;20551;-49
2023/06/29 07:05:00;;;;;;;0.43;0.40;;;;;;;25.34;70.18;95298.09;5074151;28;20434;-54
2023/06/29 07:07:28;;;;;;;1.20;0.70;;;;;;;25.30;73.01;95289.13;5074339;28;20980;-56
2023/06/29 07:09:57;;;;;;;0.53;0.40;;;;;;;24.90;70.79;95306.66;5074379;28;20449;-55
2023/06/29 07:12:25;;;;;;;0.73;0.43;;;;;;;24.95;73.00;95300.16;5074136;28;20516;-56
2023/06/29 07:14:54;;;;;;;0.40;0.30;;;;;;;25.60;69.31;95287.31;5074031;28;20470;-56
2023/06/29 07:17:22;;;;;;;2.40;0.60;;;;;;;25.82;66.24;95286.47;5073841;28;20575;-55
2023/06/29 07:19:51;;;;;;;0.40;0.30;;;;;;;25.67;67.82;95287.41;5074396;28;20445;-56
2023/06/29 07:22:23;;;;;;;0.53;0.40;;;;;;;26.22;69.12;95286.66;5074075;28;20572;-55
2023/06/29 07:24:56;;;;;;;0.30;0.30;;;;;;;27.63;63.76;95284.56;5074251;28;20441;-54
2023/06/29 07:27:24;;;;;;;0.43;0.43;;;;;;;27.00;61.80;95288.31;5072655;28;20437;-56
2023/06/29 07:29:53;;;;;;;0.70;0.50;;;;;;;26.60;65.26;95260.28;5073977;28;20499;-56
2023/06/29 07:32:22;;;;;;;0.50;0.40;;;;;;;26.68;64.01;95286.41;5073816;28;20857;-56
2023/06/29 07:34:50;;;;;;;0.40;0.30;;;;;;;26.43;63.54;95283.41;5073554;28;20476;-55
2023/06/29 07:37:19;;;;;;;0.53;0.30;;;;;;;26.42;66.23;95295.44;5073511;28;20448;-56
2023/06/29 07:39:48;;;;;;;0.40;0.30;;;;;;;25.80;65.10;95292.28;5073702;28;20449;-56
2023/06/29 07:42:17;;;;;;;1.07;0.40;;;;;;;25.18;65.73;95296.31;5073018;28;20481;-57
2023/06/29 07:45:06;;;;;;;0.40;0.30;;;;;;;25.73;68.29;95302.22;5073251;28;20446;-56
2023/06/29 07:47:35;;;;;;;0.60;0.53;;;;;;;25.66;66.33;95299.41;5073243;28;20934;-57
2023/06/29 07:50:03;;;;;;;0.50;0.50;;;;;;;25.19;68.02;95288.97;5073418;28;20942;-64
2023/06/29 07:52:32;;;;;;;0.63;0.63;;;;;;;25.46;63.82;95295.22;5073256;28;20449;-63
2023/06/29 07:55:01;;;;;;;0.40;0.30;;;;;;;25.59;65.23;95291.16;5072473;28;20426;-63
2023/06/29 07:57:30;;;;;;;0.50;0.30;;;;;;;25.77;64.35;95289.50;5073340;28;20480;-63
2023/06/29 08:00:01;;;;;;;0.47;0.47;;;;;;;25.62;65.17;95285.81;5073267;28;20474;-63
2023/06/29 08:02:29;;;;;;;0.77;0.50;;;;;;;25.95;64.04;95282.38;5073009;28;20466;-61
2023/06/29 08:04:58;;;;;;;0.63;0.60;;;;;;;26.39;65.36;95286.06;5072913;28;20452;-60
2023/06/29 08:07:29;;;;;;;0.50;0.50;;;;;;;26.72;61.95;95284.50;5072924;28;20476;-60
2023/06/29 08:09:57;;;;;;;0.40;0.30;;;;;;;27.40;56.79;95273.16;5073179;28;20817;-62
2023/06/29 08:12:27;;;;;;;0.40;0.33;;;;;;;28.00;59.70;95284.44;5072748;28;20879;-61
2023/06/29 08:14:55;;;;;;;0.40;0.40;;;;;;;28.26;59.21;95281.47;5072620;28;20935;-61
2023/06/29 08:17:24;;;;;;;0.60;0.50;;;;;;;28.55;55.99;95269.53;5072599;28;20465;-60
2023/06/29 08:19:52;;;;;;;0.50;0.30;;;;;;;28.56;56.73;95282.00;5073004;28;20433;-61
2023/06/29 08:22:20;;;;;;;1.70;0.50;;;;;;;28.87;57.90;95277.81;5059415;28;20498;-60
2023/06/29 08:24:49;;;;;;;0.60;0.43;;;;;;;28.72;55.74;95270.75;5072752;28;20890;-61
2023/06/29 08:27:17;;;;;;;0.40;0.30;;;;;;;28.09;57.82;95279.44;5072830;28;20438;-62
2023/06/29 08:29:47;;;;;;;0.40;0.30;;;;;;;27.65;55.79;95279.56;5072651;28;20473;-62
2023/06/29 08:32:15;;;;;;;0.60;0.60;;;;;;;27.50;55.22;95281.38;5071858;28;20534;-60
2023/06/29 08:34:44;;;;;;;0.70;0.40;;;;;;;28.44;55.96;95278.84;5073015;28;20442;-61
2023/06/29 08:37:12;;;;;;;0.40;0.40;;;;;;;28.60;55.26;95274.59;5072262;28;20426;-62
2023/06/29 08:39:41;;;;;;;0.50;0.40;;;;;;;28.53;53.75;95280.03;5072672;28;20442;-62
2023/06/29 08:42:10;;;;;;;0.50;0.40;;;;;;;28.97;53.80;95265.38;5072120;28;20965;-61
2023/06/29 08:44:38;;;;;;;0.97;0.50;;;;;;;28.63;53.60;95268.41;5072622;28;20450;-62
2023/06/29 08:47:09;;;;;;;0.40;0.30;;;;;;;27.93;55.08;95263.38;5072975;28;20491;-61
2023/06/29 08:49:40;;;;;;;0.50;0.47;;;;;;;28.27;56.23;95259.28;5072347;28;20464;-62
2023/06/29 08:52:12;;;;;;;0.50;0.50;;;;;;;28.87;53.99;95253.25;5072665;28;20476;-61
2023/06/29 08:54:40;;;;;;;0.40;0.40;;;;;;;28.99;53.70;95257.56;5072549;28;20575;-59
2023/06/29 08:57:10;;;;;;;0.50;0.50;;;;;;;28.83;56.63;95252.47;5072138;28;20445;-60
2023/06/29 08:59:39;;;;;;;0.70;0.60;;;;;;;28.45;56.19;95259.38;5072290;28;20442;-58
2023/06/29 09:02:10;;;;;;;0.40;0.30;;;;;;;29.10;54.69;95250.16;5072065;28;20523;-58
2023/06/29 09:04:40;;;;;;;0.60;0.50;;;;;;;28.53;53.73;95260.94;5072003;28;20468;-58
2023/06/29 09:07:09;;;;;;;0.40;0.40;;;;;;;28.30;53.40;95260.47;5072021;28;20453;-58
2023/06/29 09:09:38;;;;;;;0.40;0.37;;;;;;;28.46;55.81;95263.66;5071858;28;20446;-58
2023/06/29 09:12:09;;;;;;;0.40;0.30;;;;;;;29.53;55.34;95254.47;5071460;28;20441;-58
2023/06/29 09:14:43;;;;;;;0.60;0.60;;;;;;;30.10;52.28;95244.25;5046591;28;20529;-58
2023/06/29 09:17:17;;;;;;;0.73;0.50;;;;;;;30.07;49.91;95234.88;5071787;28;20464;-58
2023/06/29 09:19:55;;;;;;;0.50;0.40;;;;;;;31.50;49.25;95246.63;5071821;28;20502;-58
2023/06/29 09:22:27;;;;;;;0.40;0.30;;;;;;;30.07;51.57;95239.56;5067426;28;20516;-59
2023/06/29 09:24:57;;;;;;;0.90;0.50;;;;;;;29.00;54.14;95242.75;5064101;28;20537;-60
2023/06/29 09:27:43;;;;;;;0.50;0.50;;;;;;;28.21;51.45;95249.13;5072019;28;20481;-59
2023/06/29 09:30:18;;;;;;;0.60;0.40;;;;;;;27.54;55.49;95244.09;5071375;28;20481;-59
2023/06/29 09:32:48;;;;;;;1.27;0.40;;;;;;;27.63;55.50;95249.19;5071643;28;20992;-59
2023/06/29 09:35:16;;;;;;;0.50;0.37;;;;;;;28.19;56.81;95248.75;5071533;28;20444;-59
2023/06/29 09:37:45;;;;;;;0.40;0.40;;;;;;;28.36;53.04;95247.25;5071350;28;20441;-58
2023/06/29 09:40:13;;;;;;;0.50;0.30;;;;;;;28.52;53.17;95232.13;5072058;28;20489;-59
2023/06/29 09:42:42;;;;;;;0.70;0.70;;;;;;;27.25;55.12;95245.00;5071717;28;20473;-54
2023/06/29 09:45:15;;;;;;;0.70;0.40;;;;;;;27.32;58.07;95245.06;5071681;28;20441;-53
2023/06/29 09:47:51;;;;;;;0.50;0.40;;;;;;;27.87;55.29;95245.84;5071687;28;20452;-54
2023/06/29 09:50:24;;;;;;;0.30;0.30;;;;;;;27.49;58.78;95173.66;5071741;28;20436;-54
2023/06/29 09:52:54;;;;;;;0.60;0.60;;;;;;;28.16;60.49;95238.59;5071114;28;20476;-54
2023/06/29 09:55:30;;;;;;;0.40;0.40;;;;;;;27.92;58.12;95222.91;5071210;28;20964;-54
2023/06/29 09:58:00;;;;;;;0.40;0.30;;;;;;;28.91;54.98;95224.81;5071532;28;20445;-53
2023/06/29 10:00:28;;;;;;;0.70;0.57;;;;;;;28.27;53.45;95240.22;5071532;28;20437;-55
2023/06/29 10:02:59;;;;;;;0.30;0.30;;;;;;;27.98;55.02;95235.75;5071234;28;20469;-55
2023/06/29 10:05:30;;;;;;;0.50;0.40;;;;;;;28.91;55.12;95230.28;5071683;28;20501;-53
2023/06/29 10:08:02;;;;;;;0.40;0.30;;;;;;;30.08;54.32;95216.53;5071500;28;20447;-52
2023/06/29 10:10:34;;;;;;;0.50;0.47;;;;;;;30.85;49.75;95220.84;5071558;28;20476;-53
2023/06/29 10:13:05;;;;;;;0.40;0.30;;;;;;;30.53;48.42;95212.84;5045654;28;20906;-53
2023/06/29 10:15:36;;;;;;;0.50;0.43;;;;;;;30.93;52.13;95210.66;5070918;28;21133;-53
2023/06/29 10:18:11;;;;;;;0.53;0.47;;;;;;;31.08;48.48;95203.88;5074749;28;20442;-53
2023/06/29 10:20:43;;;;;;;0.60;0.50;;;;;;;30.56;49.82;95205.78;5075232;28;20443;-52
2023/06/29 10:23:15;;;;;;;0.40;0.40;;;;;;;30.11;50.94;95211.03;5075226;28;20551;-52
2023/06/29 10:25:48;;;;;;;0.40;0.30;;;;;;;29.92;49.57;95189.66;5074757;28;20476;-52
2023/06/29 10:28:18;;;;;;;0.40;0.40;;;;;;;31.30;49.43;95203.31;5074944;28;20502;-53
2023/06/29 10:30:47;;;;;;;0.60;0.60;;;;;;;30.76;51.84;95195.91;5074949;28;20440;-53
2023/06/29 10:33:23;;;;;;;0.50;0.50;;;;;;;30.67;51.51;95135.34;5074563;28;20441;-53
2023/06/29 10:35:52;;;;;;;0.60;0.40;;;;;;;31.61;48.87;95193.28;5074592;28;20437;-53
2023/06/29 10:38:21;;;;;;;0.43;0.43;;;;;;;30.64;49.94;95185.41;5074977;28;20490;-54
2023/06/29 10:40:50;;;;;;;0.70;0.57;;;;;;;30.55;51.21;95193.28;5074870;28;20847;-53
2023/06/29 10:43:18;;;;;;;0.50;0.40;;;;;;;30.51;50.08;95187.06;5074437;28;21010;-53
2023/06/29 10:45:46;;;;;;;0.50;0.30;;;;;;;29.87;50.74;95192.00;5074959;28;20470;-53
2023/06/29 10:48:18;;;;;;;1.87;0.97;;;;;;;29.90;49.02;95148.28;5074540;28;20428;-54
2023/06/29 10:51:13;;;;;;;0.40;0.40;;;;;;;29.90;48.77;95189.28;5074439;28;20444;-53
2023/06/29 10:53:42;;;;;;;0.40;0.30;;;;;;;30.80;48.11;95183.75;5049236;28;20516;-53
2023/06/29 10:56:29;;;;;;;0.47;0.47;;;;;;;31.29;48.19;95182.59;5074137;28;20506;-53
2023/06/29 10:58:59;;;;;;;0.50;0.50;;;;;;;31.00;49.38;95180.47;5074174;28;20441;-53
2023/06/29 11:01:27;;;;;;;0.93;0.30;;;;;;;30.11;46.65;95174.72;5070723;28;20438;-52
2023/06/29 11:03:56;;;;;;;1.43;0.57;;;;;;;31.79;46.90;95173.91;5065450;28;21013;-52
2023/06/29 11:06:26;;;;;;;0.40;0.37;;;;;;;30.67;49.52;95168.19;5074394;28;20444;-53
2023/06/29 11:09:11;;;;;;;1.27;0.60;;;;;;;29.67;47.67;95174.47;5074315;28;20440;-54
2023/06/29 11:11:39;;;;;;;0.40;0.30;;;;;;;29.98;49.90;95170.88;5050994;28;20440;-54
2023/06/29 11:14:08;;;;;;;0.43;0.43;;;;;;;30.64;49.00;95168.97;5073595;28;20469;-54
2023/06/29 11:16:39;;;;;;;0.50;0.50;;;;;;;30.28;47.00;95175.81;5074331;28;20441;-54
2023/06/29 11:19:08;;;;;;;0.50;0.40;;;;;;;30.29;50.67;95163.69;5073812;28;20433;-53
2023/06/29 11:21:41;;;;;;;0.40;0.30;;;;;;;29.84;49.59;95171.72;5073999;28;20437;-54
2023/06/29 11:24:10;;;;;;;0.30;0.30;;;;;;;29.75;48.41;95140.50;5073914;28;21004;-54
2023/06/29 11:26:39;;;;;;;0.40;0.30;;;;;;;28.64;50.47;95103.59;5073467;28;20445;-53
2023/06/29 11:29:08;;;;;;;1.07;0.40;;;;;;;29.05;53.93;95169.47;5072540;28;20429;-54
2023/06/29 11:31:36;;;;;;;0.50;0.40;;;;;;;29.70;48.37;95140.91;5073994;28;20441;-54
2023/06/29 11:34:04;;;;;;;0.40;0.20;;;;;;;30.01;48.33;95161.88;5073701;28;20429;-54
2023/06/29 11:36:36;;;;;;;0.70;0.30;;;;;;;30.00;49.76;95146.66;5073993;28;20450;-54
2023/06/29 11:39:08;;;;;;;0.60;0.60;;;;;;;30.90;48.96;95156.69;5047342;28;20438;-52